Time;durP1;ratioP1;P1;durP2;ratioP2;P2;SDS_P1;SDS_P2;PMS_P1;PMS_P2;Temp;Humidity;BMP_temperature;BMP_pressure;BME280_temperature;BME280_humidity;BME280_pressure;Samples;Min_cycle;Max_cycle;Signal;HPM_P1;HPM_P2
2023/04/02 00:00:23;;;;;;;;;;;;;;;11.79;55.75;96444.47;4217516;28;5794;-68
2023/04/02 00:02:31;;;;;;;;;;;;;;;11.76;55.46;96443.03;4216319;28;5632;-68
2023/04/02 00:04:36;;;;;;;;;;;;;;;11.78;55.57;96445.47;4218281;28;5612;-68
2023/04/02 00:06:43;;;;;;;;;;;;;;;11.76;55.38;96450.97;4216707;28;5791;-68
2023/04/02 00:08:48;;;;;;;;;;;;;;;11.76;55.61;96445.69;4208033;28;5640;-69
2023/04/02 00:10:53;;;;;;;;;;;;;;;11.75;55.32;96443.25;4211548;28;5622;-68
2023/04/02 00:13:01;;;;;;;;;;;;;;;11.77;55.62;96451.78;4212030;28;5684;-67
2023/04/02 00:15:05;;;;;;;;;;;;;;;11.74;55.38;96452.22;4217710;28;5612;-68
2023/04/02 00:17:08;;;;;;;;;;;;;;;11.72;55.44;96448.97;4217089;28;6311;-68
2023/04/02 00:19:18;;;;;;;;;;;;;;;11.70;55.52;96451.03;4217754;28;5810;-68
2023/04/02 00:21:24;;;;;;;;;;;;;;;11.76;55.34;96447.53;4217161;28;6942;-68
2023/04/02 00:23:28;;;;;;;;;;;;;;;11.77;55.31;96443.84;4217361;28;5604;-68
2023/04/02 00:25:41;;;;;;;;;;;;;;;11.75;55.47;96444.06;4216591;28;5620;-68
2023/04/02 00:27:44;;;;;;;;;;;;;;;11.77;55.47;96446.50;4216688;28;5759;-68
2023/04/02 00:29:48;;;;;;;;;;;;;;;11.76;55.58;96440.38;4217585;28;6307;-68
2023/04/02 00:31:52;;;;;;;;;;;;;;;11.77;55.17;96430.59;4202416;28;5623;-68
2023/04/02 00:33:55;;;;;;;;;;;;;;;11.78;55.41;96443.66;4212964;28;5721;-68
2023/04/02 00:35:59;;;;;;;;;;;;;;;11.77;55.30;96444.66;4217616;28;5613;-68
2023/04/02 00:38:02;;;;;;;;;;;;;;;11.77;55.48;96449.94;4218682;28;5821;-68
2023/04/02 00:40:09;;;;;;;;;;;;;;;11.76;55.51;96453.63;4205514;28;5612;-68
2023/04/02 00:42:16;;;;;;;;;;;;;;;11.74;55.22;96452.22;4217190;28;5768;-68
2023/04/02 00:44:20;;;;;;;;;;;;;;;11.73;55.57;96440.00;4217253;28;5613;-68
2023/04/02 00:46:31;;;;;;;;;;;;;;;11.70;55.51;96451.03;4217289;28;5680;-68
2023/04/02 00:48:41;;;;;;;;;;;;;;;11.68;55.57;96453.06;4217248;28;5685;-68
2023/04/02 00:50:44;;;;;;;;;;;;;;;11.65;55.36;96448.97;4217466;28;5715;-68
2023/04/02 00:52:50;;;;;;;;;;;;;;;11.63;55.54;96456.31;4217317;28;6311;-68
2023/04/02 00:55:03;;;;;;;;;;;;;;;11.60;55.39;96446.97;4217094;28;5608;-68
2023/04/02 00:57:16;;;;;;;;;;;;;;;11.62;55.41;96450.22;4217669;28;5887;-68
2023/04/02 00:59:24;;;;;;;;;;;;;;;11.61;55.28;96448.59;4200755;28;5644;-68
2023/04/02 01:01:33;;;;;;;;;;;;;;;11.63;55.29;96443.06;4201839;28;5091;-68
2023/04/02 01:03:36;;;;;;;;;;;;;;;11.59;55.29;96447.97;4214736;28;5711;-68
2023/04/02 01:05:41;;;;;;;;;;;;;;;11.56;55.45;96448.41;4220901;28;5759;-68
2023/04/02 01:07:58;;;;;;;;;;;;;;;11.55;55.60;96448.59;4220845;28;5755;-68
2023/04/02 01:10:29;;;;;;;;;;;;;;;11.54;55.42;96447.78;4220804;28;5612;-68
2023/04/02 01:12:48;;;;;;;;;;;;;;;11.54;55.40;96457.56;4220661;28;5656;-68
2023/04/02 01:15:02;;;;;;;;;;;;;;;11.53;55.56;96454.09;4219195;28;5720;-68
2023/04/02 01:17:17;;;;;;;;;;;;;;;11.57;55.64;96462.47;4219694;28;5731;-68
2023/04/02 01:19:47;;;;;;;;;;;;;;;11.60;55.16;96462.84;4220187;28;6548;-68
2023/04/02 01:21:57;;;;;;;;;;;;;;;11.62;55.38;96458.16;4220684;28;5616;-68
2023/04/02 01:24:04;;;;;;;;;;;;;;;11.61;55.57;96459.19;4219067;28;5838;-68
2023/04/02 01:26:15;;;;;;;;;;;;;;;11.62;55.39;96460.81;4220149;28;5845;-68
2023/04/02 01:28:26;;;;;;;;;;;;;;;11.65;55.18;96464.84;4225268;28;5203;-68
2023/04/02 01:30:30;;;;;;;;;;;;;;;11.64;55.16;96458.75;4217503;28;7172;-68
2023/04/02 01:32:34;;;;;;;;;;;;;;;11.69;55.36;96462.63;4219849;28;5609;-68
2023/04/02 01:34:38;;;;;;;;;;;;;;;11.69;55.38;96459.97;4219969;28;5617;-68
2023/04/02 01:36:51;;;;;;;;;;;;;;;11.66;55.46;96448.78;4219447;28;5805;-68
2023/04/02 01:39:04;;;;;;;;;;;;;;;11.64;55.66;96464.03;4219943;28;5613;-68
2023/04/02 01:41:13;;;;;;;;;;;;;;;11.64;55.25;96453.47;4218763;28;5704;-69
2023/04/02 01:43:23;;;;;;;;;;;;;;;11.64;55.44;96458.75;4220011;28;5613;-69
2023/04/02 01:45:27;;;;;;;;;;;;;;;11.61;55.36;96464.47;4214855;28;5623;-68
2023/04/02 01:47:32;;;;;;;;;;;;;;;11.65;55.19;96457.72;4203016;28;5623;-68
2023/04/02 01:49:34;;;;;;;;;;;;;;;11.64;55.53;96461.41;4209624;28;5692;-68
2023/04/02 01:51:41;;;;;;;;;;;;;;;11.64;55.63;96461.41;4218482;28;6306;-68
2023/04/02 01:53:44;;;;;;;;;;;;;;;11.64;55.45;96458.75;4212685;28;5628;-68
2023/04/02 01:55:49;;;;;;;;;;;;;;;11.64;55.40;96461.41;4219888;28;5616;-68
2023/04/02 01:57:54;;;;;;;;;;;;;;;11.65;55.32;96457.72;4226984;28;5609;-68
2023/04/02 01:59:59;;;;;;;;;;;;;;;11.66;55.75;96456.72;4209066;28;5647;-68
2023/04/02 02:02:04;;;;;;;;;;;;;;;11.74;55.53;96462.81;4215367;28;6298;-68
2023/04/02 02:04:12;;;;;;;;;;;;;;;11.74;55.45;96465.47;4218861;28;5731;-68
2023/04/02 02:06:18;;;;;;;;;;;;;;;11.73;55.53;96466.47;4219641;28;5613;-68
2023/04/02 02:08:30;;;;;;;;;;;;;;;11.70;55.51;96475.66;4218174;28;5601;-68
2023/04/02 02:10:35;;;;;;;;;;;;;;;11.70;55.56;96477.50;4220006;28;5609;-67
2023/04/02 02:12:38;;;;;;;;;;;;;;;11.69;55.45;96481.16;4219347;28;5629;-68
2023/04/02 02:14:46;;;;;;;;;;;;;;;11.69;55.35;96475.88;4215546;28;5694;-70
2023/04/02 02:16:52;;;;;;;;;;;;;;;11.66;55.43;96477.91;4216888;28;5837;-68
2023/04/02 02:18:57;;;;;;;;;;;;;;;11.63;55.69;96475.66;4219147;28;5604;-68
2023/04/02 02:21:07;;;;;;;;;;;;;;;11.63;55.68;96472.19;4218898;28;6401;-68
2023/04/02 02:23:12;;;;;;;;;;;;;;;11.63;55.61;96477.50;4233802;28;6331;-68
2023/04/02 02:25:18;;;;;;;;;;;;;;;11.62;55.74;96481.97;4218859;28;5888;-68
2023/04/02 02:27:43;;;;;;;;;;;;;;;11.60;55.95;96486.69;4218813;28;5714;-68
2023/04/02 02:29:50;;;;;;;;;;;;;;;11.58;55.80;96494.00;4218695;28;6380;-68
2023/04/02 02:31:55;;;;;;;;;;;;;;;11.56;56.02;96488.13;4219286;28;5636;-68
2023/04/02 02:34:01;;;;;;;;;;;;;;;11.55;55.96;96499.72;4218844;28;5625;-68
2023/04/02 02:36:13;;;;;;;;;;;;;;;11.56;55.80;96498.72;4219400;28;5723;-68
2023/04/02 02:38:29;;;;;;;;;;;;;;;11.52;55.88;96494.81;4213104;28;5687;-68
2023/04/02 02:40:38;;;;;;;;;;;;;;;11.51;55.82;96500.34;4214978;28;5616;-68
2023/04/02 02:42:47;;;;;;;;;;;;;;;11.52;55.79;96499.31;4219500;28;6298;-67
2023/04/02 02:44:53;;;;;;;;;;;;;;;11.51;55.91;96495.84;4203849;28;5616;-68
2023/04/02 02:47:00;;;;;;;;;;;;;;;11.52;55.93;96494.81;4219032;28;5719;-68
2023/04/02 02:49:04;;;;;;;;;;;;;;;11.56;56.18;96488.13;4217835;28;5615;-69
2023/04/02 02:51:18;;;;;;;;;;;;;;;11.60;55.88;96489.31;4217985;28;5625;-68
2023/04/02 02:53:23;;;;;;;;;;;;;;;11.61;56.02;96488.31;4208077;28;5629;-69
2023/04/02 02:55:31;;;;;;;;;;;;;;;11.60;55.98;96488.50;4218158;28;5699;-68
2023/04/02 02:57:39;;;;;;;;;;;;;;;11.61;56.08;96490.94;4219360;28;5080;-68
2023/04/02 02:59:43;;;;;;;;;;;;;;;11.59;56.15;96493.00;4219229;28;7695;-68
2023/04/02 03:01:47;;;;;;;;;;;;;;;11.59;56.10;96503.59;4218838;28;5620;-69
2023/04/02 03:03:53;;;;;;;;;;;;;;;11.56;56.19;96501.34;4206681;28;5640;-68
2023/04/02 03:06:00;;;;;;;;;;;;;;;11.62;56.29;96495.22;4208769;28;5715;-68
2023/04/02 03:08:09;;;;;;;;;;;;;;;11.61;56.20;96496.25;4216462;28;5521;-68
2023/04/02 03:10:18;;;;;;;;;;;;;;;11.60;56.25;96499.91;4218919;28;5613;-68
2023/04/02 03:12:34;;;;;;;;;;;;;;;11.61;55.99;96490.94;4218656;28;5104;-68
2023/04/02 03:14:43;;;;;;;;;;;;;;;11.63;56.07;96498.69;4218781;28;5613;-68
2023/04/02 03:16:50;;;;;;;;;;;;;;;11.59;56.37;96505.41;4218786;28;5617;-68
2023/04/02 03:18:58;;;;;;;;;;;;;;;11.52;56.22;96510.72;4218545;28;5601;-68
2023/04/02 03:21:08;;;;;;;;;;;;;;;11.51;56.19;96516.22;4218651;28;5617;-68
2023/04/02 03:23:17;;;;;;;;;;;;;;;11.49;56.43;96512.97;4218733;28;5736;-68
2023/04/02 03:25:29;;;;;;;;;;;;;;;11.47;56.32;96505.22;4200905;28;5631;-68
2023/04/02 03:27:35;;;;;;;;;;;;;;;11.50;56.28;96499.53;4201478;28;5698;-69
2023/04/02 03:29:41;;;;;;;;;;;;;;;11.49;56.21;96497.09;4201817;28;5686;-68
2023/04/02 03:31:48;;;;;;;;;;;;;;;11.44;56.20;96508.31;4213883;28;5609;-68
2023/04/02 03:33:52;;;;;;;;;;;;;;;11.39;56.32;96510.72;4218230;28;5616;-68
2023/04/02 03:36:01;;;;;;;;;;;;;;;11.38;56.54;96511.75;4226754;28;5626;-68
2023/04/02 03:38:07;;;;;;;;;;;;;;;11.42;56.54;96510.31;4225359;28;5628;-68
2023/04/02 03:40:18;;;;;;;;;;;;;;;11.35;56.48;96512.16;4218001;28;5625;-68
2023/04/02 03:42:24;;;;;;;;;;;;;;;11.34;56.43;96513.19;4218617;28;5684;-68
2023/04/02 03:44:33;;;;;;;;;;;;;;;11.32;56.67;96517.84;4205748;28;5690;-68
2023/04/02 03:46:40;;;;;;;;;;;;;;;11.31;56.51;96510.94;4213102;28;5876;-68
2023/04/02 03:48:47;;;;;;;;;;;;;;;11.34;56.72;96510.53;4217918;28;5593;-68
2023/04/02 03:50:56;;;;;;;;;;;;;;;11.34;56.42;96516.66;4217782;28;5633;-68
2023/04/02 03:52:59;;;;;;;;;;;;;;;11.37;56.70;96512.78;4218067;28;5621;-68
2023/04/02 03:55:09;;;;;;;;;;;;;;;11.38;56.47;96523.16;4217871;28;5803;-67
2023/04/02 03:57:22;;;;;;;;;;;;;;;11.41;56.58;96516.63;4218168;28;5727;-68
2023/04/02 03:59:33;;;;;;;;;;;;;;;11.43;56.52;96519.06;4218146;28;5625;-68
2023/04/02 04:01:43;;;;;;;;;;;;;;;11.41;56.60;96521.09;4219614;28;5723;-68
2023/04/02 04:03:49;;;;;;;;;;;;;;;11.37;56.89;96521.53;4217789;28;5657;-69
2023/04/02 04:05:57;;;;;;;;;;;;;;;11.39;56.82;96518.66;4202656;28;5635;-68
2023/04/02 04:08:03;;;;;;;;;;;;;;;11.41;56.49;96521.09;4233690;28;5590;-68
2023/04/02 04:10:09;;;;;;;;;;;;;;;11.39;56.78;96521.31;4218459;28;5719;-69
2023/04/02 04:12:23;;;;;;;;;;;;;;;11.41;56.82;96523.75;4217616;28;5621;-69
2023/04/02 04:14:29;;;;;;;;;;;;;;;11.42;56.57;96520.91;4214436;28;5806;-68
2023/04/02 04:16:40;;;;;;;;;;;;;;;11.43;56.96;96522.53;4198617;28;6330;-68
2023/04/02 04:18:50;;;;;;;;;;;;;;;11.44;56.63;96523.34;4217055;28;6308;-68
2023/04/02 04:20:57;;;;;;;;;;;;;;;11.42;56.97;96523.53;4212356;28;5636;-68
2023/04/02 04:23:10;;;;;;;;;;;;;;;11.41;56.67;96532.50;4203172;28;5627;-68
2023/04/02 04:25:22;;;;;;;;;;;;;;;11.38;56.61;96523.16;4205993;28;5620;-68
2023/04/02 04:27:32;;;;;;;;;;;;;;;11.39;56.80;96526.59;4217220;28;5830;-69
2023/04/02 04:29:44;;;;;;;;;;;;;;;11.41;56.74;96521.91;4217107;28;5641;-68
2023/04/02 04:31:49;;;;;;;;;;;;;;;11.44;56.90;96520.69;4218143;28;5792;-68
2023/04/02 04:34:01;;;;;;;;;;;;;;;11.44;57.05;96524.19;4206652;28;5632;-68
2023/04/02 04:36:06;;;;;;;;;;;;;;;11.48;56.77;96527.22;4200588;28;5781;-68
2023/04/02 04:38:14;;;;;;;;;;;;;;;11.48;56.54;96527.22;4214561;28;5791;-69
2023/04/02 04:40:22;;;;;;;;;;;;;;;11.46;56.79;96526.63;4201196;28;5726;-68
2023/04/02 04:42:31;;;;;;;;;;;;;;;11.45;56.91;96523.16;4183057;28;5829;-68
2023/04/02 04:44:44;;;;;;;;;;;;;;;11.42;56.83;96531.47;4198955;28;5628;-68
2023/04/02 04:46:55;;;;;;;;;;;;;;;11.42;56.74;96531.47;4216940;28;5672;-68
2023/04/02 04:49:02;;;;;;;;;;;;;;;11.41;57.12;96537.81;4217193;28;5625;-69
2023/04/02 04:51:15;;;;;;;;;;;;;;;11.45;56.87;96539.03;4212388;28;5700;-68
2023/04/02 04:53:21;;;;;;;;;;;;;;;11.42;56.67;96544.72;4207632;28;5628;-68
2023/04/02 04:55:28;;;;;;;;;;;;;;;11.43;57.10;96545.53;4216979;28;5640;-68
2023/04/02 04:57:37;;;;;;;;;;;;;;;11.47;56.96;96547.59;4217472;28;5620;-68
2023/04/02 04:59:44;;;;;;;;;;;;;;;11.49;56.84;96548.19;4217560;28;5605;-68
2023/04/02 05:01:53;;;;;;;;;;;;;;;11.52;57.08;96552.25;4217304;28;5814;-69
2023/04/02 05:04:03;;;;;;;;;;;;;;;11.52;57.07;96542.47;4217114;28;5634;-69
2023/04/02 05:06:11;;;;;;;;;;;;;;;11.53;57.34;96545.94;4210491;28;5743;-68
2023/04/02 05:08:19;;;;;;;;;;;;;;;11.49;57.04;96548.19;4208443;28;6325;-68
2023/04/02 05:10:31;;;;;;;;;;;;;;;11.53;57.39;96551.22;4200593;28;5831;-68
2023/04/02 05:12:40;;;;;;;;;;;;;;;11.54;57.42;96543.09;4202740;28;7683;-68
2023/04/02 05:14:50;;;;;;;;;;;;;;;11.53;57.25;96554.69;4213564;28;5528;-68
2023/04/02 05:16:58;;;;;;;;;;;;;;;11.53;57.07;96553.88;4214913;28;5696;-68
2023/04/02 05:19:07;;;;;;;;;;;;;;;11.54;57.32;96547.56;4224551;28;6300;-68
2023/04/02 05:21:19;;;;;;;;;;;;;;;11.54;57.38;96551.03;4217143;28;6318;-68
2023/04/02 05:23:26;;;;;;;;;;;;;;;11.53;57.62;96552.03;4216590;28;5641;-68
2023/04/02 05:25:31;;;;;;;;;;;;;;;11.53;57.72;96551.22;4216855;28;5617;-68
2023/04/02 05:27:44;;;;;;;;;;;;;;;11.54;57.25;96553.66;4217199;28;5613;-68
2023/04/02 05:29:53;;;;;;;;;;;;;;;11.56;57.58;96556.94;4201433;28;5626;-68
2023/04/02 05:32:02;;;;;;;;;;;;;;;11.59;57.60;96561.84;4217123;28;5621;-68
2023/04/02 05:34:05;;;;;;;;;;;;;;;11.57;57.70;96557.78;4216944;28;6421;-68
2023/04/02 05:36:11;;;;;;;;;;;;;;;11.55;57.86;96559.78;4216385;28;5621;-68
2023/04/02 05:38:20;;;;;;;;;;;;;;;11.55;57.78;96568.56;4217960;28;5629;-68
2023/04/02 05:40:29;;;;;;;;;;;;;;;11.54;57.88;96572.19;4216112;28;5613;-68
2023/04/02 05:42:37;;;;;;;;;;;;;;;11.54;57.70;96564.25;4217027;28;5532;-68
2023/04/02 05:44:55;;;;;;;;;;;;;;;11.55;58.02;96570.38;4206523;28;5635;-68
2023/04/02 05:47:02;;;;;;;;;;;;;;;11.54;57.88;96579.34;4200696;28;5631;-68
2023/04/02 05:49:11;;;;;;;;;;;;;;;11.54;57.86;96576.69;4201843;28;5616;-68
2023/04/02 05:51:18;;;;;;;;;;;;;;;11.54;58.16;96576.69;4212836;28;5624;-68
2023/04/02 05:53:25;;;;;;;;;;;;;;;11.54;58.07;96568.75;4220148;28;5945;-68
2023/04/02 05:55:36;;;;;;;;;;;;;;;11.53;57.76;96578.53;4213225;28;5613;-68
2023/04/02 05:57:47;;;;;;;;;;;;;;;11.51;58.00;96569.97;4209391;28;5695;-68
2023/04/02 06:00:16;;;;;;;;;;;;;;;11.52;58.27;96571.59;4219743;28;5725;-68
2023/04/02 06:02:24;;;;;;;;;;;;;;;11.56;58.38;96574.66;4219567;28;5716;-68
2023/04/02 06:04:34;;;;;;;;;;;;;;;11.58;58.12;96577.94;4209422;28;5636;-68
2023/04/02 06:06:49;;;;;;;;;;;;;;;11.57;58.12;96585.06;4219451;28;5750;-68
2023/04/02 06:08:59;;;;;;;;;;;;;;;11.58;58.23;96584.03;4219270;28;5605;-68
2023/04/02 06:11:06;;;;;;;;;;;;;;;11.56;57.95;96583.44;4227552;28;5757;-68
2023/04/02 06:13:14;;;;;;;;;;;;;;;11.58;58.31;96588.50;4230120;28;5696;-68
2023/04/02 06:15:20;;;;;;;;;;;;;;;11.56;57.99;96583.44;4217279;28;5621;-68
2023/04/02 06:17:23;;;;;;;;;;;;;;;11.60;58.51;96584.63;4203530;28;5639;-68
2023/04/02 06:19:29;;;;;;;;;;;;;;;11.64;58.32;96583.19;4220313;28;5605;-68
2023/04/02 06:21:32;;;;;;;;;;;;;;;11.71;58.03;96590.34;4219043;28;5616;-68
2023/04/02 06:23:40;;;;;;;;;;;;;;;11.74;58.35;96589.91;4209640;28;5723;-68
2023/04/02 06:25:48;;;;;;;;;;;;;;;11.77;58.13;96590.31;4202890;28;5631;-66
2023/04/02 06:27:52;;;;;;;;;;;;;;;11.79;58.11;96590.13;4207331;28;5621;-68
2023/04/02 06:30:00;;;;;;;;;;;;;;;11.80;58.38;96594.44;4207060;28;5613;-68
2023/04/02 06:32:06;;;;;;;;;;;;;;;11.84;58.42;96595.66;4218890;28;5719;-67
2023/04/02 06:34:15;;;;;;;;;;;;;;;11.87;58.38;96600.53;4219072;28;5130;-68
2023/04/02 06:36:20;;;;;;;;;;;;;;;11.89;58.42;96603.78;4219786;28;5617;-68
2023/04/02 06:38:27;;;;;;;;;;;;;;;11.89;58.20;96606.44;4218060;28;5775;-68
2023/04/02 06:40:40;;;;;;;;;;;;;;;11.90;58.36;96600.13;4222836;28;5613;-68
2023/04/02 06:42:45;;;;;;;;;;;;;;;11.87;58.57;96603.19;4218866;28;5630;-68
2023/04/02 06:44:49;;;;;;;;;;;;;;;11.84;58.26;96603.59;4217402;28;5787;-69
2023/04/02 06:46:57;;;;;;;;;;;;;;;11.88;58.27;96610.09;4219142;28;5748;-68
2023/04/02 06:49:11;;;;;;;;;;;;;;;11.89;58.26;96609.06;4219103;28;5613;-67
2023/04/02 06:51:20;;;;;;;;;;;;;;;11.91;58.63;96615.81;4219284;28;5672;-67
2023/04/02 06:53:26;;;;;;;;;;;;;;;11.93;58.34;96618.25;4203148;28;5627;-67
2023/04/02 06:55:33;;;;;;;;;;;;;;;11.97;58.55;96630.06;4218648;28;5621;-67
2023/04/02 06:57:36;;;;;;;;;;;;;;;11.99;58.25;96625.38;4216172;28;6519;-67
2023/04/02 06:59:39;;;;;;;;;;;;;;;11.99;58.60;96625.38;4201950;28;6431;-68
2023/04/02 07:01:47;;;;;;;;;;;;;;;12.02;58.57;96630.28;4196195;28;5548;-67
2023/04/02 07:03:52;;;;;;;;;;;;;;;12.02;58.50;96626.81;4214063;28;5643;-68
2023/04/02 07:05:55;;;;;;;;;;;;;;;12.03;58.47;96623.16;4202068;28;5721;-68
2023/04/02 07:07:58;;;;;;;;;;;;;;;12.02;58.71;96624.97;4202150;28;5632;-68
2023/04/02 07:10:01;;;;;;;;;;;;;;;12.02;58.75;96632.13;4208004;28;5629;-67
2023/04/02 07:12:11;;;;;;;;;;;;;;;12.00;58.48;96632.28;4218507;28;5863;-67
2023/04/02 07:14:14;;;;;;;;;;;;;;;12.02;58.74;96635.56;4217347;28;5696;-67
2023/04/02 07:16:20;;;;;;;;;;;;;;;12.04;58.53;96633.53;4218274;28;5784;-67
2023/04/02 07:18:27;;;;;;;;;;;;;;;12.05;58.53;96634.34;4218299;28;5621;-67
2023/04/02 07:20:36;;;;;;;;;;;;;;;12.05;58.62;96629.03;4217983;28;5680;-67
2023/04/02 07:22:39;;;;;;;;;;;;;;;12.05;58.77;96637.81;4207752;28;5521;-67
2023/04/02 07:24:42;;;;;;;;;;;;;;;12.07;58.39;96641.06;4205439;28;5795;-67
2023/04/02 07:26:46;;;;;;;;;;;;;;;12.06;58.61;96639.44;4207464;28;5625;-67
2023/04/02 07:28:49;;;;;;;;;;;;;;;12.06;58.65;96651.88;4217725;28;5621;-67
2023/04/02 07:30:52;;;;;;;;;;;;;;;12.08;58.72;96652.47;4210843;28;5726;-67
2023/04/02 07:32:55;;;;;;;;;;;;;;;12.06;58.46;96652.69;4213741;28;5692;-67
2023/04/02 07:34:58;;;;;;;;;;;;;;;12.07;58.91;96653.50;4216614;28;5684;-67
2023/04/02 07:37:02;;;;;;;;;;;;;;;12.09;58.83;96651.44;4208900;28;5635;-67
2023/04/02 07:39:06;;;;;;;;;;;;;;;12.08;58.91;96655.94;4215791;28;5704;-68
2023/04/02 07:41:09;;;;;;;;;;;;;;;12.11;58.83;96663.47;4203868;28;5876;-68
2023/04/02 07:43:11;;;;;;;;;;;;;;;12.10;58.41;96656.53;4215488;28;5683;-68
2023/04/02 07:45:14;;;;;;;;;;;;;;;12.15;58.87;96661.25;4213291;28;5717;-68
2023/04/02 07:47:17;;;;;;;;;;;;;;;12.17;58.77;96667.97;4213647;28;5628;-68
2023/04/02 07:49:21;;;;;;;;;;;;;;;12.24;58.54;96668.78;4209627;28;5709;-69
2023/04/02 07:51:26;;;;;;;;;;;;;;;12.30;58.38;96675.06;4208939;28;5631;-68
2023/04/02 07:53:32;;;;;;;;;;;;;;;12.33;58.47;96669.34;4214041;28;6565;-68
2023/04/02 07:55:35;;;;;;;;;;;;;;;12.37;58.68;96669.78;4215048;28;7202;-68
2023/04/02 07:57:40;;;;;;;;;;;;;;;12.41;58.34;96670.97;4213709;28;5827;-68
2023/04/02 07:59:45;;;;;;;;;;;;;;;12.48;58.48;96677.09;4215706;28;5609;-68
2023/04/02 08:01:48;;;;;;;;;;;;;;;12.50;58.42;96677.69;4214363;28;5745;-67
2023/04/02 08:03:51;;;;;;;;;;;;;;;12.54;58.43;96673.59;4209187;28;5621;-67
2023/04/02 08:05:58;;;;;;;;;;;;;;;12.57;58.15;96681.16;4211415;28;5612;-67
2023/04/02 08:08:00;;;;;;;;;;;;;;;12.57;58.28;96681.16;4213299;28;5613;-68
2023/04/02 08:10:06;;;;;;;;;;;;;;;12.57;58.62;96688.25;4214331;28;5612;-68
2023/04/02 08:12:11;;;;;;;;;;;;;;;12.58;58.51;96693.38;4213996;28;6443;-70
2023/04/02 08:14:14;;;;;;;;;;;;;;;12.58;58.21;96693.38;4211927;28;5612;-72
2023/04/02 08:16:17;;;;;;;;;;;;;;;12.57;58.30;96685.59;4210001;28;5743;-72
2023/04/02 08:18:22;;;;;;;;;;;;;;;12.59;58.31;96686.25;4214990;28;5708;-72
2023/04/02 08:20:25;;;;;;;;;;;;;;;12.61;58.41;96692.97;4208084;28;5767;-72
2023/04/02 08:22:28;;;;;;;;;;;;;;;12.56;58.30;96692.75;4209268;28;5624;-72
2023/04/02 08:24:31;;;;;;;;;;;;;;;12.54;58.32;96692.16;4209350;28;5703;-72
2023/04/02 08:26:36;;;;;;;;;;;;;;;12.55;58.26;96691.13;4214642;28;5676;-73
2023/04/02 08:28:39;;;;;;;;;;;;;;;12.53;58.42;96691.34;4206358;28;5735;-72
2023/04/02 08:30:42;;;;;;;;;;;;;;;12.56;58.33;96692.75;4220280;28;5718;-72
2023/04/02 08:32:45;;;;;;;;;;;;;;;12.57;58.48;96688.25;4214030;28;5132;-73
2023/04/02 08:34:48;;;;;;;;;;;;;;;12.54;58.27;96692.16;4213704;28;5784;-73
2023/04/02 08:36:51;;;;;;;;;;;;;;;12.56;58.37;96692.75;4212150;28;5710;-72
2023/04/02 08:38:54;;;;;;;;;;;;;;;12.60;58.47;96693.97;4204991;28;6296;-71
2023/04/02 08:41:01;;;;;;;;;;;;;;;12.60;58.22;96691.34;4214523;28;6386;-71
2023/04/02 08:43:36;;;;;;;;;;;;;;;12.67;58.61;96692.09;4214796;28;5744;-71
2023/04/02 08:45:49;;;;;;;;;;;;;;;12.76;58.36;96695.34;4209529;28;5077;-72
2023/04/02 08:47:56;;;;;;;;;;;;;;;12.79;57.97;96689.63;4202648;28;6419;-72
2023/04/02 08:50:02;;;;;;;;;;;;;;;12.81;58.25;96699.03;4212069;28;5820;-72
2023/04/02 08:52:05;;;;;;;;;;;;;;;12.81;58.06;96706.16;4212849;28;5625;-72
2023/04/02 08:54:18;;;;;;;;;;;;;;;12.88;58.04;96703.47;4206369;28;5707;-70
2023/04/02 08:56:29;;;;;;;;;;;;;;;12.92;58.26;96705.53;4208494;28;5964;-68
2023/04/02 08:58:41;;;;;;;;;;;;;;;13.00;57.93;96709.75;4211271;28;7102;-69
2023/04/02 09:00:47;;;;;;;;;;;;;;;13.06;57.95;96706.28;4210522;28;5822;-70
2023/04/02 09:02:56;;;;;;;;;;;;;;;13.10;57.93;96710.94;4203664;28;5926;-70
2023/04/02 09:05:02;;;;;;;;;;;;;;;13.16;57.99;96713.78;4210857;28;5648;-68
2023/04/02 09:07:06;;;;;;;;;;;;;;;13.20;58.09;96718.50;4210242;28;6561;-68
2023/04/02 09:09:11;;;;;;;;;;;;;;;13.27;57.78;96711.31;4214190;28;5755;-68
2023/04/02 09:11:22;;;;;;;;;;;;;;;13.28;57.75;96715.59;4215582;28;5713;-70
2023/04/02 09:13:28;;;;;;;;;;;;;;;13.25;57.98;96721.34;4209842;28;6023;-69
2023/04/02 09:15:35;;;;;;;;;;;;;;;13.30;57.68;96721.50;4207002;28;6933;-70
2023/04/02 09:17:40;;;;;;;;;;;;;;;13.37;57.49;96730.25;4203341;28;5708;-74
2023/04/02 09:19:58;;;;;;;;;;;;;;;13.39;57.51;96722.91;4209793;28;5616;-76
2023/04/02 09:22:07;;;;;;;;;;;;;;;13.40;57.34;96732.50;4204917;28;5700;-75
2023/04/02 09:24:12;;;;;;;;;;;;;;;13.40;57.49;96729.84;4217291;28;5613;-69
2023/04/02 09:26:21;;;;;;;;;;;;;;;13.40;57.53;96731.69;4202272;28;5620;-76
2023/04/02 09:28:26;;;;;;;;;;;;;;;13.38;57.37;96731.88;4212547;28;5716;-75
2023/04/02 09:30:41;;;;;;;;;;;;;;;13.37;57.06;96735.56;4214410;28;5692;-74
2023/04/02 09:32:49;;;;;;;;;;;;;;;13.32;57.46;96737.22;4211870;28;5077;-74
2023/04/02 09:35:06;;;;;;;;;;;;;;;13.27;57.55;96737.88;4208117;28;5708;-72
2023/04/02 09:37:24;;;;;;;;;;;;;;;13.26;57.51;96741.56;4217071;28;5778;-75
2023/04/02 09:39:27;;;;;;;;;;;;;;;13.26;57.03;96748.69;4209015;28;5699;-69
2023/04/02 09:41:32;;;;;;;;;;;;;;;13.27;57.30;96747.69;4205683;28;5704;-71
2023/04/02 09:43:38;;;;;;;;;;;;;;;13.27;56.83;96745.84;4209307;28;6516;-74
2023/04/02 09:45:44;;;;;;;;;;;;;;;13.29;57.02;96751.75;4214552;28;5694;-75
2023/04/02 09:47:47;;;;;;;;;;;;;;;13.29;57.04;96743.78;4214168;28;5710;-67
2023/04/02 09:49:51;;;;;;;;;;;;;;;13.28;57.00;96747.47;4211192;28;5635;-66
2023/04/02 09:52:16;;;;;;;;;;;;;;;13.30;56.73;96750.72;4215104;28;6519;-70
2023/04/02 09:54:21;;;;;;;;;;;;;;;13.31;56.57;96752.34;4203020;28;5619;-69
2023/04/02 09:56:25;;;;;;;;;;;;;;;13.33;56.85;96755.59;4216809;28;6206;-73
2023/04/02 09:58:28;;;;;;;;;;;;;;;13.34;56.71;96751.91;4209548;28;5700;-69
2023/04/02 10:00:31;;;;;;;;;;;;;;;13.36;56.40;96757.84;4212444;28;7082;-72
2023/04/02 10:02:46;;;;;;;;;;;;;;;13.38;56.33;96760.28;4213263;28;5723;-68
2023/04/02 10:04:49;;;;;;;;;;;;;;;13.43;56.36;96764.94;4206146;28;6504;-68
2023/04/02 10:06:57;;;;;;;;;;;;;;;13.48;56.33;96768.63;4215795;28;5661;-68
2023/04/02 10:09:21;;;;;;;;;;;;;;;13.55;56.35;96772.03;4212080;28;5850;-71
2023/04/02 10:11:28;;;;;;;;;;;;;;;13.57;56.22;96777.13;4212259;28;5613;-72
2023/04/02 10:13:52;;;;;;;;;;;;;;;13.58;56.13;96768.13;4212503;28;5797;-71
2023/04/02 10:16:01;;;;;;;;;;;;;;;13.61;56.19;96778.34;4211603;28;6537;-72
2023/04/02 10:18:15;;;;;;;;;;;;;;;13.60;55.90;96768.75;4207172;28;5727;-71
2023/04/02 10:20:22;;;;;;;;;;;;;;;13.59;56.13;96775.06;4215551;28;5755;-70
2023/04/02 10:22:28;;;;;;;;;;;;;;;13.58;56.11;96776.09;4198438;28;5635;-69
2023/04/02 10:24:31;;;;;;;;;;;;;;;13.60;55.93;96782.03;4210430;28;5885;-70
2023/04/02 10:26:46;;;;;;;;;;;;;;;13.56;55.59;96778.97;4211661;28;5256;-70
2023/04/02 10:29:03;;;;;;;;;;;;;;;13.57;55.90;96779.78;4215270;28;7806;-70
2023/04/02 10:31:16;;;;;;;;;;;;;;;13.57;55.71;96785.91;4215339;28;6413;-71
2023/04/02 10:33:27;;;;;;;;;;;;;;;13.57;55.95;96780.59;4211929;28;5632;-76
2023/04/02 10:35:42;;;;;;;;;;;;;;;13.57;55.82;96782.44;4208068;28;5818;-74
2023/04/02 10:38:21;;;;;;;;;;;;;;;13.52;56.10;96785.75;4213061;28;5726;-77
2023/04/02 10:40:28;;;;;;;;;;;;;;;13.51;55.92;96783.31;4211039;28;5614;-71
2023/04/02 10:42:36;;;;;;;;;;;;;;;13.52;55.87;96795.56;4212404;28;5624;-72
2023/04/02 10:44:53;;;;;;;;;;;;;;;13.52;56.14;96791.06;4216669;28;5720;-71
2023/04/02 10:47:08;;;;;;;;;;;;;;;13.52;55.83;96790.25;4213047;28;5628;-73
2023/04/02 10:49:24;;;;;;;;;;;;;;;13.45;55.71;96794.75;4215455;28;5648;-81
2023/04/02 10:51:34;;;;;;;;;;;;;;;13.39;55.78;96797.25;4210202;28;5604;-73
2023/04/02 10:53:45;;;;;;;;;;;;;;;13.38;56.05;96798.28;4189115;28;5685;-72
2023/04/02 10:55:52;;;;;;;;;;;;;;;13.39;55.97;96805.22;4216372;28;5732;-70
2023/04/02 10:57:58;;;;;;;;;;;;;;;13.38;55.99;96800.13;4207677;28;5828;-70
2023/04/02 11:00:15;;;;;;;;;;;;;;;13.39;56.14;96801.75;4206074;28;5632;-69
2023/04/02 11:02:31;;;;;;;;;;;;;;;13.39;56.05;96799.09;4205521;28;5605;-71
2023/04/02 11:04:41;;;;;;;;;;;;;;;13.40;55.85;96803.38;4213295;28;5846;-70
2023/04/02 11:06:48;;;;;;;;;;;;;;;13.36;55.99;96807.44;4212270;28;5716;-70
2023/04/02 11:08:57;;;;;;;;;;;;;;;13.35;55.88;96801.31;4213896;28;6361;-72
2023/04/02 11:11:04;;;;;;;;;;;;;;;13.33;56.28;96802.56;4210727;28;5628;-71
2023/04/02 11:13:15;;;;;;;;;;;;;;;13.33;55.96;96808.69;4209818;28;5715;-72
2023/04/02 11:15:19;;;;;;;;;;;;;;;13.34;56.01;96801.53;4206011;28;5889;-70